sensor_id;sensor_type;location;lat;lon;timestamp;P1;durP1;ratioP1;P2;durP2;ratioP2
80711;SDS011;70078;51.596;5.678;2023-09-07T00:01:10;11.50;;;9.70;;
80711;SDS011;70078;51.596;5.678;2023-09-07T00:03:35;12.70;;;10.35;;
80711;SDS011;70078;51.596;5.678;2023-09-07T00:06:05;10.63;;;9.50;;
80711;SDS011;70078;51.596;5.678;2023-09-07T00:08:31;11.23;;;8.18;;
80711;SDS011;70078;51.596;5.678;2023-09-07T00:11:02;12.95;;;9.45;;
80711;SDS011;70078;51.596;5.678;2023-09-07T00:13:28;12.30;;;8.13;;
80711;SDS011;70078;51.596;5.678;2023-09-07T00:15:57;13.77;;;7.93;;
80711;SDS011;70078;51.596;5.678;2023-09-07T00:18:24;10.35;;;7.95;;
80711;SDS011;70078;51.596;5.678;2023-09-07T00:20:49;10.35;;;8.00;;
80711;SDS011;70078;51.596;5.678;2023-09-07T00:23:15;13.52;;;7.85;;
80711;SDS011;70078;51.596;5.678;2023-09-07T00:25:41;10.10;;;8.05;;
80711;SDS011;70078;51.596;5.678;2023-09-07T00:28:06;11.00;;;8.23;;
80711;SDS011;70078;51.596;5.678;2023-09-07T00:30:31;13.50;;;8.15;;
80711;SDS011;70078;51.596;5.678;2023-09-07T00:32:57;13.93;;;9.85;;
80711;SDS011;70078;51.596;5.678;2023-09-07T00:35:22;8.98;;;7.82;;
80711;SDS011;70078;51.596;5.678;2023-09-07T00:37:47;11.05;;;9.52;;
80711;SDS011;70078;51.596;5.678;2023-09-07T00:40:13;11.52;;;8.90;;
80711;SDS011;70078;51.596;5.678;2023-09-07T00:42:38;10.60;;;8.73;;
80711;SDS011;70078;51.596;5.678;2023-09-07T00:45:03;15.63;;;9.38;;
80711;SDS011;70078;51.596;5.678;2023-09-07T00:47:29;10.95;;;8.35;;
80711;SDS011;70078;51.596;5.678;2023-09-07T00:49:55;11.15;;;8.65;;
80711;SDS011;70078;51.596;5.678;2023-09-07T00:52:20;12.32;;;10.35;;
80711;SDS011;70078;51.596;5.678;2023-09-07T00:54:46;11.45;;;10.23;;
80711;SDS011;70078;51.596;5.678;2023-09-07T00:57:11;11.30;;;9.88;;
80711;SDS011;70078;51.596;5.678;2023-09-07T00:59:37;14.32;;;10.30;;
80711;SDS011;70078;51.596;5.678;2023-09-07T01:02:02;11.02;;;8.65;;
80711;SDS011;70078;51.596;5.678;2023-09-07T01:04:30;9.68;;;8.05;;
80711;SDS011;70078;51.596;5.678;2023-09-07T01:07:42;12.07;;;8.15;;
80711;SDS011;70078;51.596;5.678;2023-09-07T01:09:51;11.65;;;9.68;;
80711;SDS011;70078;51.596;5.678;2023-09-07T01:12:19;13.95;;;10.13;;
80711;SDS011;70078;51.596;5.678;2023-09-07T01:14:45;12.23;;;8.50;;
80711;SDS011;70078;51.596;5.678;2023-09-07T01:17:11;12.10;;;10.85;;
80711;SDS011;70078;51.596;5.678;2023-09-07T01:19:38;12.63;;;9.88;;
80711;SDS011;70078;51.596;5.678;2023-09-07T01:22:04;9.60;;;8.25;;
80711;SDS011;70078;51.596;5.678;2023-09-07T01:24:33;10.50;;;9.48;;
80711;SDS011;70078;51.596;5.678;2023-09-07T01:27:00;8.98;;;8.00;;
80711;SDS011;70078;51.596;5.678;2023-09-07T01:29:28;11.52;;;9.50;;
80711;SDS011;70078;51.596;5.678;2023-09-07T01:31:54;11.63;;;10.43;;
80711;SDS011;70078;51.596;5.678;2023-09-07T01:34:20;10.35;;;8.60;;
80711;SDS011;70078;51.596;5.678;2023-09-07T01:36:45;9.57;;;8.13;;
80711;SDS011;70078;51.596;5.678;2023-09-07T01:39:10;12.18;;;10.80;;
80711;SDS011;70078;51.596;5.678;2023-09-07T01:41:35;11.85;;;10.48;;
80711;SDS011;70078;51.596;5.678;2023-09-07T01:44:01;11.32;;;10.15;;
80711;SDS011;70078;51.596;5.678;2023-09-07T01:46:26;14.15;;;9.90;;
80711;SDS011;70078;51.596;5.678;2023-09-07T01:48:51;9.90;;;7.97;;
80711;SDS011;70078;51.596;5.678;2023-09-07T01:51:17;11.70;;;9.18;;
80711;SDS011;70078;51.596;5.678;2023-09-07T01:53:42;11.63;;;10.43;;
80711;SDS011;70078;51.596;5.678;2023-09-07T01:56:07;11.05;;;9.73;;
80711;SDS011;70078;51.596;5.678;2023-09-07T01:58:33;10.23;;;8.57;;
80711;SDS011;70078;51.596;5.678;2023-09-07T02:00:59;12.80;;;9.60;;
80711;SDS011;70078;51.596;5.678;2023-09-07T02:03:27;12.00;;;10.63;;
80711;SDS011;70078;51.596;5.678;2023-09-07T02:05:52;14.18;;;10.60;;
80711;SDS011;70078;51.596;5.678;2023-09-07T02:08:18;18.85;;;10.65;;
80711;SDS011;70078;51.596;5.678;2023-09-07T02:10:44;13.23;;;10.90;;
80711;SDS011;70078;51.596;5.678;2023-09-07T02:13:09;11.60;;;10.50;;
80711;SDS011;70078;51.596;5.678;2023-09-07T02:15:37;19.85;;;11.75;;
80711;SDS011;70078;51.596;5.678;2023-09-07T02:18:03;15.98;;;10.75;;
80711;SDS011;70078;51.596;5.678;2023-09-07T02:20:30;17.65;;;11.32;;
80711;SDS011;70078;51.596;5.678;2023-09-07T02:22:58;11.20;;;9.25;;
80711;SDS011;70078;51.596;5.678;2023-09-07T02:25:24;14.88;;;11.25;;
80711;SDS011;70078;51.596;5.678;2023-09-07T02:27:50;10.35;;;8.43;;
80711;SDS011;70078;51.596;5.678;2023-09-07T02:30:15;18.73;;;11.52;;
80711;SDS011;70078;51.596;5.678;2023-09-07T02:32:42;17.33;;;10.40;;
80711;SDS011;70078;51.596;5.678;2023-09-07T02:35:08;23.55;;;12.05;;
80711;SDS011;70078;51.596;5.678;2023-09-07T02:37:35;14.50;;;8.68;;
80711;SDS011;70078;51.596;5.678;2023-09-07T02:40:00;15.15;;;10.00;;
80711;SDS011;70078;51.596;5.678;2023-09-07T02:42:26;13.70;;;10.50;;
80711;SDS011;70078;51.596;5.678;2023-09-07T02:44:51;14.32;;;11.05;;
80711;SDS011;70078;51.596;5.678;2023-09-07T02:47:16;14.38;;;10.43;;
80711;SDS011;70078;51.596;5.678;2023-09-07T02:49:42;15.68;;;10.93;;
80711;SDS011;70078;51.596;5.678;2023-09-07T02:52:07;14.43;;;11.00;;
80711;SDS011;70078;51.596;5.678;2023-09-07T02:54:32;13.75;;;10.73;;
80711;SDS011;70078;51.596;5.678;2023-09-07T02:56:58;12.30;;;8.63;;
80711;SDS011;70078;51.596;5.678;2023-09-07T02:59:23;15.13;;;10.98;;
80711;SDS011;70078;51.596;5.678;2023-09-07T03:01:48;14.98;;;9.50;;
80711;SDS011;70078;51.596;5.678;2023-09-07T03:04:14;13.45;;;10.13;;
80711;SDS011;70078;51.596;5.678;2023-09-07T03:06:39;17.98;;;9.88;;
80711;SDS011;70078;51.596;5.678;2023-09-07T03:09:04;13.82;;;10.13;;
80711;SDS011;70078;51.596;5.678;2023-09-07T03:11:33;16.65;;;10.80;;
80711;SDS011;70078;51.596;5.678;2023-09-07T03:13:59;15.52;;;11.52;;
80711;SDS011;70078;51.596;5.678;2023-09-07T03:16:25;13.95;;;11.23;;
80711;SDS011;70078;51.596;5.678;2023-09-07T03:18:50;15.68;;;9.60;;
80711;SDS011;70078;51.596;5.678;2023-09-07T03:21:15;15.63;;;10.75;;
80711;SDS011;70078;51.596;5.678;2023-09-07T03:23:41;14.30;;;11.35;;
80711;SDS011;70078;51.596;5.678;2023-09-07T03:26:09;17.92;;;11.50;;
80711;SDS011;70078;51.596;5.678;2023-09-07T03:28:34;11.80;;;10.20;;
80711;SDS011;70078;51.596;5.678;2023-09-07T03:30:59;13.07;;;11.68;;
80711;SDS011;70078;51.596;5.678;2023-09-07T03:33:25;16.05;;;11.73;;
80711;SDS011;70078;51.596;5.678;2023-09-07T03:35:50;15.32;;;9.07;;
80711;SDS011;70078;51.596;5.678;2023-09-07T03:38:16;17.20;;;11.32;;
80711;SDS011;70078;51.596;5.678;2023-09-07T03:40:42;13.88;;;9.52;;
80711;SDS011;70078;51.596;5.678;2023-09-07T03:43:08;19.17;;;9.55;;
80711;SDS011;70078;51.596;5.678;2023-09-07T03:45:34;15.60;;;9.10;;
80711;SDS011;70078;51.596;5.678;2023-09-07T03:47:59;13.35;;;8.70;;
80711;SDS011;70078;51.596;5.678;2023-09-07T03:50:24;11.48;;;9.20;;
80711;SDS011;70078;51.596;5.678;2023-09-07T03:52:49;11.20;;;9.98;;
80711;SDS011;70078;51.596;5.678;2023-09-07T03:55:15;14.73;;;10.43;;
80711;SDS011;70078;51.596;5.678;2023-09-07T03:57:40;13.23;;;10.85;;
80711;SDS011;70078;51.596;5.678;2023-09-07T04:00:06;13.75;;;11.45;;
80711;SDS011;70078;51.596;5.678;2023-09-07T04:02:33;11.55;;;8.95;;
80711;SDS011;70078;51.596;5.678;2023-09-07T04:05:01;13.02;;;8.70;;
80711;SDS011;70078;51.596;5.678;2023-09-07T04:07:29;15.98;;;11.13;;
80711;SDS011;70078;51.596;5.678;2023-09-07T04:09:55;13.90;;;9.02;;
80711;SDS011;70078;51.596;5.678;2023-09-07T04:12:20;13.60;;;10.93;;
80711;SDS011;70078;51.596;5.678;2023-09-07T04:14:45;13.80;;;11.38;;
80711;SDS011;70078;51.596;5.678;2023-09-07T04:17:10;13.13;;;10.98;;
80711;SDS011;70078;51.596;5.678;2023-09-07T04:19:36;13.80;;;11.00;;
80711;SDS011;70078;51.596;5.678;2023-09-07T04:22:01;13.68;;;10.35;;
80711;SDS011;70078;51.596;5.678;2023-09-07T04:24:27;12.73;;;9.35;;
80711;SDS011;70078;51.596;5.678;2023-09-07T04:26:52;12.50;;;9.13;;
80711;SDS011;70078;51.596;5.678;2023-09-07T04:29:18;12.10;;;9.35;;
80711;SDS011;70078;51.596;5.678;2023-09-07T04:31:43;13.77;;;11.20;;
80711;SDS011;70078;51.596;5.678;2023-09-07T04:34:09;15.93;;;10.60;;
80711;SDS011;70078;51.596;5.678;2023-09-07T04:36:34;14.52;;;10.98;;
80711;SDS011;70078;51.596;5.678;2023-09-07T04:38:59;12.18;;;10.00;;
80711;SDS011;70078;51.596;5.678;2023-09-07T04:41:24;12.98;;;10.45;;
80711;SDS011;70078;51.596;5.678;2023-09-07T04:43:50;15.25;;;11.38;;
80711;SDS011;70078;51.596;5.678;2023-09-07T04:46:15;13.00;;;9.05;;
80711;SDS011;70078;51.596;5.678;2023-09-07T04:48:41;13.55;;;9.27;;
80711;SDS011;70078;51.596;5.678;2023-09-07T04:51:07;14.15;;;10.70;;
80711;SDS011;70078;51.596;5.678;2023-09-07T04:53:34;13.07;;;11.43;;
80711;SDS011;70078;51.596;5.678;2023-09-07T04:56:01;14.13;;;10.70;;
80711;SDS011;70078;51.596;5.678;2023-09-07T04:58:28;14.57;;;9.45;;
80711;SDS011;70078;51.596;5.678;2023-09-07T05:00:53;12.77;;;8.27;;
80711;SDS011;70078;51.596;5.678;2023-09-07T05:03:19;15.80;;;12.25;;
80711;SDS011;70078;51.596;5.678;2023-09-07T05:05:44;15.07;;;10.65;;
80711;SDS011;70078;51.596;5.678;2023-09-07T05:08:15;12.80;;;8.35;;
80711;SDS011;70078;51.596;5.678;2023-09-07T05:10:40;16.27;;;8.82;;
80711;SDS011;70078;51.596;5.678;2023-09-07T05:13:06;13.85;;;10.50;;
80711;SDS011;70078;51.596;5.678;2023-09-07T05:15:31;16.50;;;10.95;;
80711;SDS011;70078;51.596;5.678;2023-09-07T05:17:56;13.85;;;10.32;;
80711;SDS011;70078;51.596;5.678;2023-09-07T05:20:21;13.38;;;9.00;;
80711;SDS011;70078;51.596;5.678;2023-09-07T05:22:47;12.80;;;10.68;;
80711;SDS011;70078;51.596;5.678;2023-09-07T05:25:13;13.57;;;10.55;;
80711;SDS011;70078;51.596;5.678;2023-09-07T05:27:38;14.95;;;10.30;;
80711;SDS011;70078;51.596;5.678;2023-09-07T05:30:04;16.63;;;11.27;;
80711;SDS011;70078;51.596;5.678;2023-09-07T05:32:30;17.35;;;12.45;;
80711;SDS011;70078;51.596;5.678;2023-09-07T05:34:56;15.68;;;10.77;;
80711;SDS011;70078;51.596;5.678;2023-09-07T05:37:21;13.30;;;9.60;;
80711;SDS011;70078;51.596;5.678;2023-09-07T05:39:46;15.40;;;10.07;;
80711;SDS011;70078;51.596;5.678;2023-09-07T05:42:12;15.10;;;8.57;;
80711;SDS011;70078;51.596;5.678;2023-09-07T05:44:37;11.93;;;9.20;;
80711;SDS011;70078;51.596;5.678;2023-09-07T05:47:03;14.18;;;11.13;;
80711;SDS011;70078;51.596;5.678;2023-09-07T05:49:29;16.38;;;11.73;;
80711;SDS011;70078;51.596;5.678;2023-09-07T05:51:54;14.07;;;9.80;;
80711;SDS011;70078;51.596;5.678;2023-09-07T05:54:20;15.88;;;9.77;;
80711;SDS011;70078;51.596;5.678;2023-09-07T05:56:45;15.52;;;9.73;;
80711;SDS011;70078;51.596;5.678;2023-09-07T05:59:10;11.90;;;9.70;;
80711;SDS011;70078;51.596;5.678;2023-09-07T06:01:35;15.40;;;11.00;;
80711;SDS011;70078;51.596;5.678;2023-09-07T06:04:01;14.95;;;11.43;;
80711;SDS011;70078;51.596;5.678;2023-09-07T06:06:27;13.88;;;9.57;;
80711;SDS011;70078;51.596;5.678;2023-09-07T06:08:52;17.00;;;11.38;;
80711;SDS011;70078;51.596;5.678;2023-09-07T06:11:17;13.73;;;9.38;;
80711;SDS011;70078;51.596;5.678;2023-09-07T06:13:43;15.93;;;9.65;;
80711;SDS011;70078;51.596;5.678;2023-09-07T06:16:08;16.08;;;9.82;;
80711;SDS011;70078;51.596;5.678;2023-09-07T06:18:33;13.73;;;11.32;;
80711;SDS011;70078;51.596;5.678;2023-09-07T06:20:58;14.38;;;11.98;;
80711;SDS011;70078;51.596;5.678;2023-09-07T06:23:24;13.27;;;10.07;;
80711;SDS011;70078;51.596;5.678;2023-09-07T06:25:49;13.07;;;11.68;;
80711;SDS011;70078;51.596;5.678;2023-09-07T06:28:14;15.68;;;11.18;;
80711;SDS011;70078;51.596;5.678;2023-09-07T06:30:39;14.43;;;9.75;;
80711;SDS011;70078;51.596;5.678;2023-09-07T06:33:05;12.23;;;8.85;;
80711;SDS011;70078;51.596;5.678;2023-09-07T06:35:30;14.57;;;9.10;;
80711;SDS011;70078;51.596;5.678;2023-09-07T06:37:55;15.38;;;11.35;;
80711;SDS011;70078;51.596;5.678;2023-09-07T06:40:21;13.77;;;12.27;;
80711;SDS011;70078;51.596;5.678;2023-09-07T06:42:47;12.77;;;9.70;;
80711;SDS011;70078;51.596;5.678;2023-09-07T06:45:12;15.35;;;9.15;;
80711;SDS011;70078;51.596;5.678;2023-09-07T06:47:37;16.85;;;12.45;;
80711;SDS011;70078;51.596;5.678;2023-09-07T06:50:03;14.18;;;9.35;;
80711;SDS011;70078;51.596;5.678;2023-09-07T06:52:29;14.57;;;12.20;;
80711;SDS011;70078;51.596;5.678;2023-09-07T06:54:55;14.98;;;10.90;;
80711;SDS011;70078;51.596;5.678;2023-09-07T06:57:20;13.98;;;10.88;;
80711;SDS011;70078;51.596;5.678;2023-09-07T06:59:46;14.57;;;11.88;;
80711;SDS011;70078;51.596;5.678;2023-09-07T07:02:11;14.23;;;11.18;;
80711;SDS011;70078;51.596;5.678;2023-09-07T07:04:37;12.52;;;9.52;;
80711;SDS011;70078;51.596;5.678;2023-09-07T07:07:02;14.32;;;10.98;;
80711;SDS011;70078;51.596;5.678;2023-09-07T07:09:32;13.13;;;11.13;;
80711;SDS011;70078;51.596;5.678;2023-09-07T07:12:00;12.80;;;10.18;;
80711;SDS011;70078;51.596;5.678;2023-09-07T07:14:28;12.10;;;9.27;;
80711;SDS011;70078;51.596;5.678;2023-09-07T07:16:53;13.35;;;10.63;;
80711;SDS011;70078;51.596;5.678;2023-09-07T07:19:19;17.85;;;8.43;;
80711;SDS011;70078;51.596;5.678;2023-09-07T07:21:44;12.18;;;10.48;;
80711;SDS011;70078;51.596;5.678;2023-09-07T07:24:09;14.82;;;8.77;;
80711;SDS011;70078;51.596;5.678;2023-09-07T07:26:35;12.57;;;10.18;;
80711;SDS011;70078;51.596;5.678;2023-09-07T07:29:01;11.35;;;8.50;;
80711;SDS011;70078;51.596;5.678;2023-09-07T07:31:27;11.00;;;9.30;;
80711;SDS011;70078;51.596;5.678;2023-09-07T07:33:54;12.52;;;8.13;;
80711;SDS011;70078;51.596;5.678;2023-09-07T07:36:20;11.45;;;9.55;;
80711;SDS011;70078;51.596;5.678;2023-09-07T07:38:46;13.63;;;9.45;;
80711;SDS011;70078;51.596;5.678;2023-09-07T07:41:11;11.65;;;9.80;;
80711;SDS011;70078;51.596;5.678;2023-09-07T07:43:36;13.38;;;7.25;;
80711;SDS011;70078;51.596;5.678;2023-09-07T07:46:02;12.23;;;9.18;;
80711;SDS011;70078;51.596;5.678;2023-09-07T07:48:27;12.98;;;8.65;;
80711;SDS011;70078;51.596;5.678;2023-09-07T07:50:54;11.25;;;7.15;;
80711;SDS011;70078;51.596;5.678;2023-09-07T07:53:20;11.27;;;8.95;;
80711;SDS011;70078;51.596;5.678;2023-09-07T07:55:45;9.50;;;8.50;;
80711;SDS011;70078;51.596;5.678;2023-09-07T07:58:11;12.52;;;8.65;;
80711;SDS011;70078;51.596;5.678;2023-09-07T08:00:36;15.52;;;8.65;;
80711;SDS011;70078;51.596;5.678;2023-09-07T08:03:03;10.15;;;8.55;;
80711;SDS011;70078;51.596;5.678;2023-09-07T08:05:30;7.93;;;6.47;;
80711;SDS011;70078;51.596;5.678;2023-09-07T08:07:56;8.60;;;6.30;;
80711;SDS011;70078;51.596;5.678;2023-09-07T08:10:21;11.13;;;7.90;;
80711;SDS011;70078;51.596;5.678;2023-09-07T08:12:47;11.18;;;7.75;;
80711;SDS011;70078;51.596;5.678;2023-09-07T08:15:12;12.20;;;7.82;;
80711;SDS011;70078;51.596;5.678;2023-09-07T08:17:39;8.70;;;7.15;;
80711;SDS011;70078;51.596;5.678;2023-09-07T08:20:04;11.95;;;7.75;;
80711;SDS011;70078;51.596;5.678;2023-09-07T08:22:32;9.70;;;7.30;;
80711;SDS011;70078;51.596;5.678;2023-09-07T08:25:00;11.38;;;7.80;;
80711;SDS011;70078;51.596;5.678;2023-09-07T08:27:25;7.72;;;5.55;;
80711;SDS011;70078;51.596;5.678;2023-09-07T08:29:50;8.90;;;7.28;;
80711;SDS011;70078;51.596;5.678;2023-09-07T08:32:17;9.80;;;6.72;;
80711;SDS011;70078;51.596;5.678;2023-09-07T08:34:42;9.05;;;6.47;;
80711;SDS011;70078;51.596;5.678;2023-09-07T08:37:08;9.50;;;6.53;;
80711;SDS011;70078;51.596;5.678;2023-09-07T08:39:36;9.40;;;5.13;;
80711;SDS011;70078;51.596;5.678;2023-09-07T08:42:04;7.15;;;5.20;;
80711;SDS011;70078;51.596;5.678;2023-09-07T08:44:30;7.88;;;5.07;;
80711;SDS011;70078;51.596;5.678;2023-09-07T08:46:58;7.05;;;6.35;;
80711;SDS011;70078;51.596;5.678;2023-09-07T08:49:26;10.38;;;5.43;;
80711;SDS011;70078;51.596;5.678;2023-09-07T08:51:51;7.18;;;6.43;;
80711;SDS011;70078;51.596;5.678;2023-09-07T08:54:19;9.18;;;5.40;;
80711;SDS011;70078;51.596;5.678;2023-09-07T08:56:45;8.35;;;6.05;;
80711;SDS011;70078;51.596;5.678;2023-09-07T08:59:11;7.88;;;6.57;;
80711;SDS011;70078;51.596;5.678;2023-09-07T09:01:37;8.25;;;5.88;;
80711;SDS011;70078;51.596;5.678;2023-09-07T09:04:02;7.50;;;6.75;;
80711;SDS011;70078;51.596;5.678;2023-09-07T09:06:28;8.48;;;6.25;;
80711;SDS011;70078;51.596;5.678;2023-09-07T09:08:54;8.30;;;5.22;;
80711;SDS011;70078;51.596;5.678;2023-09-07T09:11:21;7.88;;;7.07;;
80711;SDS011;70078;51.596;5.678;2023-09-07T09:13:48;8.23;;;7.43;;
80711;SDS011;70078;51.596;5.678;2023-09-07T09:16:14;6.50;;;5.15;;
80711;SDS011;70078;51.596;5.678;2023-09-07T09:21:22;8.13;;;6.50;;
80711;SDS011;70078;51.596;5.678;2023-09-07T09:23:49;8.50;;;6.38;;
80711;SDS011;70078;51.596;5.678;2023-09-07T09:26:17;6.88;;;6.00;;
80711;SDS011;70078;51.596;5.678;2023-09-07T09:28:43;7.72;;;5.80;;
80711;SDS011;70078;51.596;5.678;2023-09-07T09:31:12;7.88;;;4.82;;
80711;SDS011;70078;51.596;5.678;2023-09-07T09:33:39;8.15;;;6.72;;
80711;SDS011;70078;51.596;5.678;2023-09-07T09:36:05;9.43;;;7.55;;
80711;SDS011;70078;51.596;5.678;2023-09-07T09:38:31;7.45;;;6.18;;
80711;SDS011;70078;51.596;5.678;2023-09-07T09:40:57;6.65;;;5.95;;
80711;SDS011;70078;51.596;5.678;2023-09-07T09:43:23;5.97;;;5.35;;
80711;SDS011;70078;51.596;5.678;2023-09-07T09:45:50;6.50;;;3.90;;
80711;SDS011;70078;51.596;5.678;2023-09-07T09:48:17;6.47;;;5.78;;
80711;SDS011;70078;51.596;5.678;2023-09-07T09:50:48;5.88;;;4.38;;
80711;SDS011;70078;51.596;5.678;2023-09-07T09:53:16;8.02;;;6.05;;
80711;SDS011;70078;51.596;5.678;2023-09-07T09:55:44;9.35;;;5.60;;
80711;SDS011;70078;51.596;5.678;2023-09-07T09:58:12;9.20;;;6.05;;
80711;SDS011;70078;51.596;5.678;2023-09-07T10:00:38;6.32;;;5.72;;
80711;SDS011;70078;51.596;5.678;2023-09-07T10:03:20;6.43;;;5.50;;
80711;SDS011;70078;51.596;5.678;2023-09-07T10:05:51;9.38;;;5.50;;
80711;SDS011;70078;51.596;5.678;2023-09-07T10:08:17;7.40;;;6.50;;
80711;SDS011;70078;51.596;5.678;2023-09-07T10:10:46;7.68;;;5.85;;
80711;SDS011;70078;51.596;5.678;2023-09-07T10:13:15;11.20;;;5.70;;
80711;SDS011;70078;51.596;5.678;2023-09-07T10:15:59;5.00;;;4.20;;
80711;SDS011;70078;51.596;5.678;2023-09-07T10:18:32;8.00;;;6.05;;
80711;SDS011;70078;51.596;5.678;2023-09-07T10:21:04;6.13;;;5.53;;
80711;SDS011;70078;51.596;5.678;2023-09-07T10:23:37;6.70;;;6.10;;
80711;SDS011;70078;51.596;5.678;2023-09-07T10:26:04;6.03;;;5.25;;
80711;SDS011;70078;51.596;5.678;2023-09-07T10:28:30;6.22;;;5.63;;
80711;SDS011;70078;51.596;5.678;2023-09-07T10:31:03;6.15;;;5.55;;
80711;SDS011;70078;51.596;5.678;2023-09-07T10:33:30;6.63;;;4.15;;
80711;SDS011;70078;51.596;5.678;2023-09-07T10:35:57;5.28;;;3.97;;
80711;SDS011;70078;51.596;5.678;2023-09-07T10:38:22;7.88;;;5.50;;
80711;SDS011;70078;51.596;5.678;2023-09-07T10:40:48;6.03;;;5.53;;
80711;SDS011;70078;51.596;5.678;2023-09-07T10:43:22;5.75;;;5.25;;
80711;SDS011;70078;51.596;5.678;2023-09-07T10:45:48;6.30;;;5.55;;
80711;SDS011;70078;51.596;5.678;2023-09-07T10:48:14;6.38;;;5.88;;
80711;SDS011;70078;51.596;5.678;2023-09-07T10:50:42;7.07;;;5.47;;
80711;SDS011;70078;51.596;5.678;2023-09-07T10:53:09;5.72;;;5.22;;
80711;SDS011;70078;51.596;5.678;2023-09-07T10:55:38;7.63;;;5.22;;
80711;SDS011;70078;51.596;5.678;2023-09-07T10:58:05;6.82;;;5.53;;
80711;SDS011;70078;51.596;5.678;2023-09-07T11:00:30;6.10;;;5.32;;
80711;SDS011;70078;51.596;5.678;2023-09-07T11:02:56;6.22;;;5.53;;
80711;SDS011;70078;51.596;5.678;2023-09-07T11:05:21;6.38;;;4.13;;
80711;SDS011;70078;51.596;5.678;2023-09-07T11:07:46;6.55;;;5.93;;
80711;SDS011;70078;51.596;5.678;2023-09-07T11:10:12;7.25;;;4.65;;
80711;SDS011;70078;51.596;5.678;2023-09-07T11:12:38;7.45;;;6.45;;
80711;SDS011;70078;51.596;5.678;2023-09-07T11:15:04;4.85;;;4.35;;
80711;SDS011;70078;51.596;5.678;2023-09-07T11:17:33;7.15;;;5.90;;
80711;SDS011;70078;51.596;5.678;2023-09-07T11:19:58;7.10;;;4.32;;
80711;SDS011;70078;51.596;5.678;2023-09-07T11:22:30;7.40;;;5.75;;
80711;SDS011;70078;51.596;5.678;2023-09-07T11:24:55;6.53;;;4.07;;
80711;SDS011;70078;51.596;5.678;2023-09-07T11:27:21;5.40;;;4.47;;
80711;SDS011;70078;51.596;5.678;2023-09-07T11:29:51;5.22;;;3.92;;
80711;SDS011;70078;51.596;5.678;2023-09-07T11:32:17;6.43;;;4.43;;
80711;SDS011;70078;51.596;5.678;2023-09-07T11:34:50;5.25;;;4.32;;
80711;SDS011;70078;51.596;5.678;2023-09-07T11:37:23;6.65;;;3.88;;
80711;SDS011;70078;51.596;5.678;2023-09-07T11:39:49;5.60;;;4.40;;
80711;SDS011;70078;51.596;5.678;2023-09-07T11:42:15;5.10;;;4.13;;
80711;SDS011;70078;51.596;5.678;2023-09-07T11:44:40;6.20;;;4.25;;
80711;SDS011;70078;51.596;5.678;2023-09-07T11:47:05;6.57;;;6.00;;
80711;SDS011;70078;51.596;5.678;2023-09-07T11:49:31;6.07;;;5.47;;
80711;SDS011;70078;51.596;5.678;2023-09-07T11:51:57;4.97;;;4.30;;
80711;SDS011;70078;51.596;5.678;2023-09-07T11:54:23;6.22;;;4.40;;
80711;SDS011;70078;51.596;5.678;2023-09-07T11:56:48;6.10;;;3.88;;
80711;SDS011;70078;51.596;5.678;2023-09-07T11:59:13;5.85;;;4.63;;
80711;SDS011;70078;51.596;5.678;2023-09-07T12:01:39;5.63;;;3.92;;
80711;SDS011;70078;51.596;5.678;2023-09-07T12:04:05;5.93;;;5.43;;
80711;SDS011;70078;51.596;5.678;2023-09-07T12:06:31;7.47;;;4.47;;
80711;SDS011;70078;51.596;5.678;2023-09-07T12:09:00;7.07;;;5.60;;
80711;SDS011;70078;51.596;5.678;2023-09-07T12:11:27;6.15;;;4.60;;
80711;SDS011;70078;51.596;5.678;2023-09-07T12:13:52;6.78;;;4.40;;
80711;SDS011;70078;51.596;5.678;2023-09-07T12:16:17;5.93;;;4.60;;
80711;SDS011;70078;51.596;5.678;2023-09-07T12:18:43;6.63;;;4.20;;
80711;SDS011;70078;51.596;5.678;2023-09-07T12:21:08;9.00;;;7.20;;
80711;SDS011;70078;51.596;5.678;2023-09-07T12:23:33;4.50;;;3.97;;
80711;SDS011;70078;51.596;5.678;2023-09-07T12:26:00;7.68;;;5.57;;
80711;SDS011;70078;51.596;5.678;2023-09-07T12:28:26;9.25;;;6.03;;
80711;SDS011;70078;51.596;5.678;2023-09-07T12:30:51;5.05;;;3.85;;
80711;SDS011;70078;51.596;5.678;2023-09-07T12:33:16;7.75;;;4.53;;
80711;SDS011;70078;51.596;5.678;2023-09-07T12:35:42;5.32;;;4.22;;
80711;SDS011;70078;51.596;5.678;2023-09-07T12:38:07;7.88;;;5.75;;
80711;SDS011;70078;51.596;5.678;2023-09-07T12:40:35;6.30;;;5.70;;
80711;SDS011;70078;51.596;5.678;2023-09-07T12:43:01;5.00;;;4.07;;
80711;SDS011;70078;51.596;5.678;2023-09-07T12:45:26;7.28;;;5.82;;
80711;SDS011;70078;51.596;5.678;2023-09-07T12:47:52;6.18;;;3.58;;
80711;SDS011;70078;51.596;5.678;2023-09-07T12:50:17;6.53;;;4.20;;
80711;SDS011;70078;51.596;5.678;2023-09-07T12:52:42;7.03;;;5.80;;
80711;SDS011;70078;51.596;5.678;2023-09-07T12:55:08;6.28;;;5.47;;
80711;SDS011;70078;51.596;5.678;2023-09-07T12:57:33;6.80;;;6.20;;
80711;SDS011;70078;51.596;5.678;2023-09-07T12:59:59;6.90;;;5.68;;
80711;SDS011;70078;51.596;5.678;2023-09-07T13:02:25;5.75;;;5.25;;
80711;SDS011;70078;51.596;5.678;2023-09-07T13:05:03;8.30;;;4.68;;
80711;SDS011;70078;51.596;5.678;2023-09-07T13:07:31;5.50;;;3.70;;
80711;SDS011;70078;51.596;5.678;2023-09-07T13:10:00;6.15;;;5.55;;
80711;SDS011;70078;51.596;5.678;2023-09-07T13:12:30;6.10;;;5.60;;
80711;SDS011;70078;51.596;5.678;2023-09-07T13:14:56;7.10;;;5.78;;
80711;SDS011;70078;51.596;5.678;2023-09-07T13:17:21;5.97;;;5.45;;
80711;SDS011;70078;51.596;5.678;2023-09-07T13:19:47;5.78;;;5.28;;
80711;SDS011;70078;51.596;5.678;2023-09-07T13:22:13;9.10;;;5.63;;
80711;SDS011;70078;51.596;5.678;2023-09-07T13:24:38;5.35;;;4.75;;
80711;SDS011;70078;51.596;5.678;2023-09-07T13:27:04;6.10;;;5.50;;
80711;SDS011;70078;51.596;5.678;2023-09-07T13:29:29;6.00;;;5.40;;
80711;SDS011;70078;51.596;5.678;2023-09-07T13:31:56;5.00;;;4.07;;
80711;SDS011;70078;51.596;5.678;2023-09-07T13:34:23;6.43;;;4.13;;
80711;SDS011;70078;51.596;5.678;2023-09-07T13:36:49;8.40;;;5.03;;
80711;SDS011;70078;51.596;5.678;2023-09-07T13:39:14;8.35;;;5.38;;
80711;SDS011;70078;51.596;5.678;2023-09-07T13:41:39;6.30;;;5.40;;
80711;SDS011;70078;51.596;5.678;2023-09-07T13:44:04;12.32;;;6.97;;
80711;SDS011;70078;51.596;5.678;2023-09-07T13:46:30;7.88;;;4.43;;
80711;SDS011;70078;51.596;5.678;2023-09-07T13:48:55;7.38;;;6.50;;
80711;SDS011;70078;51.596;5.678;2023-09-07T13:51:21;8.57;;;4.15;;
80711;SDS011;70078;51.596;5.678;2023-09-07T13:53:46;6.68;;;6.07;;
80711;SDS011;70078;51.596;5.678;2023-09-07T13:56:12;6.03;;;5.43;;
80711;SDS011;70078;51.596;5.678;2023-09-07T13:58:37;6.40;;;5.80;;
80711;SDS011;70078;51.596;5.678;2023-09-07T14:01:03;6.22;;;5.45;;
80711;SDS011;70078;51.596;5.678;2023-09-07T14:03:28;7.53;;;5.68;;
80711;SDS011;70078;51.596;5.678;2023-09-07T14:05:53;6.72;;;4.28;;
80711;SDS011;70078;51.596;5.678;2023-09-07T14:08:19;6.40;;;5.53;;
80711;SDS011;70078;51.596;5.678;2023-09-07T14:10:48;6.60;;;6.00;;
80711;SDS011;70078;51.596;5.678;2023-09-07T14:13:14;6.40;;;5.50;;
80711;SDS011;70078;51.596;5.678;2023-09-07T14:15:39;5.65;;;3.97;;
80711;SDS011;70078;51.596;5.678;2023-09-07T14:18:05;6.50;;;5.35;;
80711;SDS011;70078;51.596;5.678;2023-09-07T14:20:30;4.63;;;3.88;;
80711;SDS011;70078;51.596;5.678;2023-09-07T14:22:56;6.50;;;4.25;;
80711;SDS011;70078;51.596;5.678;2023-09-07T14:25:25;6.82;;;4.15;;
80711;SDS011;70078;51.596;5.678;2023-09-07T14:27:51;6.20;;;5.25;;
80711;SDS011;70078;51.596;5.678;2023-09-07T14:30:16;7.05;;;6.40;;
80711;SDS011;70078;51.596;5.678;2023-09-07T14:32:43;5.22;;;4.05;;